Time;durP1;ratioP1;P1;durP2;ratioP2;P2;SDS_P1;SDS_P2;PMS_P1;PMS_P2;Temp;Humidity;BMP_temperature;BMP_pressure;BME280_temperature;BME280_humidity;BME280_pressure;Samples;Min_cycle;Max_cycle;Signal;HPM_P1;HPM_P2
2023/04/07 00:01:34;;;;;;;9.40;8.30;;;8.80;99.90;;;;;;5015305;28;20250;-78
2023/04/07 00:03:59;;;;;;;9.40;8.10;;;8.80;99.90;;;;;;5020004;28;20187;-78
2023/04/07 00:06:26;;;;;;;9.03;8.03;;;8.90;99.90;;;;;;5022859;28;20201;-78
2023/04/07 00:08:52;;;;;;;10.90;8.63;;;8.90;99.90;;;;;;5018255;28;20283;-77
2023/04/07 00:11:17;;;;;;;9.70;8.20;;;8.80;99.90;;;;;;5022592;28;20465;-78
2023/04/07 00:13:43;;;;;;;10.00;8.57;;;8.90;99.90;;;;;;5001909;28;20985;-78
2023/04/07 00:16:09;;;;;;;9.43;8.17;;;8.80;99.90;;;;;;5015699;28;20274;-78
2023/04/07 00:18:34;;;;;;;8.77;7.87;;;8.80;99.90;;;;;;5023309;28;20182;-77
2023/04/07 00:21:00;;;;;;;9.43;8.50;;;8.90;99.90;;;;;;5026337;28;20210;-78
2023/04/07 00:23:26;;;;;;;9.20;8.30;;;9.00;99.90;;;;;;5029572;28;20221;-78
2023/04/07 00:25:51;;;;;;;11.33;9.07;;;9.00;99.90;;;;;;5013370;28;20221;-78
2023/04/07 00:28:17;;;;;;;9.70;8.63;;;9.00;99.90;;;;;;5029493;28;20194;-78
2023/04/07 00:30:43;;;;;;;9.80;8.80;;;9.10;99.90;;;;;;5022196;28;20207;-78
2023/04/07 00:33:08;;;;;;;11.07;9.43;;;8.90;99.90;;;;;;5024416;28;20266;-77
2023/04/07 00:35:34;;;;;;;10.23;9.00;;;8.90;99.90;;;;;;5023044;28;20179;-77
2023/04/07 00:37:59;;;;;;;11.13;9.97;;;8.90;99.90;;;;;;5030258;28;20242;-78
2023/04/07 00:40:25;;;;;;;10.40;9.20;;;8.90;99.90;;;;;;5026213;28;20489;-77
2023/04/07 00:42:51;;;;;;;9.30;8.33;;;9.10;99.90;;;;;;5007971;28;20230;-78
2023/04/07 00:45:17;;;;;;;11.37;9.80;;;9.10;99.90;;;;;;5019129;28;20187;-78
2023/04/07 00:47:42;;;;;;;11.57;9.33;;;8.90;99.90;;;;;;5020630;28;20915;-78
2023/04/07 00:50:08;;;;;;;10.40;9.33;;;8.90;99.90;;;;;;5003335;28;20241;-77
2023/04/07 00:52:35;;;;;;;9.40;8.40;;;8.90;99.90;;;;;;5024185;28;20207;-78
2023/04/07 00:55:01;;;;;;;10.53;9.43;;;9.00;99.90;;;;;;5023392;28;20517;-78
2023/04/07 00:57:26;;;;;;;10.53;8.60;;;8.90;99.90;;;;;;5008079;28;20451;-78
2023/04/07 00:59:53;;;;;;;11.17;9.97;;;9.00;99.90;;;;;;5004874;28;20279;-78
2023/04/07 01:02:57;;;;;;;10.93;9.60;;;9.00;99.90;;;;;;4996632;28;20188;-79
2023/04/07 01:05:45;;;;;;;10.83;8.67;;;9.00;99.90;;;;;;4990261;28;20434;-77
2023/04/07 01:08:14;;;;;;;11.13;9.97;;;9.00;99.90;;;;;;4994849;28;20423;-80
2023/04/07 01:11:03;;;;;;;9.90;8.90;;;9.00;99.90;;;;;;5004240;28;20448;-77
2023/04/07 01:13:48;;;;;;;10.97;9.47;;;9.00;99.90;;;;;;4993267;28;20415;-80
2023/04/07 01:16:30;;;;;;;10.60;9.50;;;8.90;99.90;;;;;;4995068;28;20422;-79
2023/04/07 01:19:18;;;;;;;11.90;10.70;;;9.00;99.90;;;;;;4994505;28;20407;-79
2023/04/07 01:21:48;;;;;;;12.03;9.70;;;9.00;99.90;;;;;;4977903;28;20407;-78
2023/04/07 01:24:49;;;;;;;11.23;10.03;;;8.80;99.90;;;;;;4993359;28;20415;-78
2023/04/07 01:27:33;;;;;;;10.47;8.43;;;9.00;99.90;;;;;;5003706;28;20430;-80
2023/04/07 01:30:01;;;;;;;11.33;10.03;;;9.10;99.90;;;;;;5012643;28;20445;-78
2023/04/07 01:32:27;;;;;;;10.93;9.73;;;9.00;99.90;;;;;;5014722;28;20489;-79
2023/04/07 01:34:54;;;;;;;12.90;10.60;;;9.00;99.90;;;;;;5013118;28;20472;-80
2023/04/07 01:37:21;;;;;;;13.43;11.00;;;8.90;99.90;;;;;;5014018;28;20824;-81
2023/04/07 01:39:47;;;;;;;12.80;11.50;;;9.20;99.90;;;;;;5012740;28;20485;-78
2023/04/07 01:42:14;;;;;;;12.40;11.03;;;9.00;99.90;;;;;;5013940;28;20419;-79
2023/04/07 01:44:40;;;;;;;11.50;10.30;;;9.10;99.90;;;;;;5013832;28;20183;-79
2023/04/07 01:47:07;;;;;;;13.20;10.90;;;9.10;99.90;;;;;;5014275;28;20986;-79
2023/04/07 01:49:34;;;;;;;12.47;10.37;;;9.10;99.90;;;;;;5012623;28;20599;-80
2023/04/07 01:52:01;;;;;;;13.57;10.60;;;9.20;99.90;;;;;;5013995;28;20511;-80
2023/04/07 01:54:27;;;;;;;12.37;10.87;;;9.10;99.90;;;;;;5013691;28;20993;-78
2023/04/07 01:56:53;;;;;;;12.60;11.40;;;9.10;99.90;;;;;;5002381;28;20415;-78
2023/04/07 01:59:19;;;;;;;13.13;10.27;;;9.10;99.90;;;;;;4994505;28;20534;-81
2023/04/07 02:01:44;;;;;;;12.23;10.37;;;9.20;99.90;;;;;;4993606;28;20188;-80
2023/04/07 02:04:48;;;;;;;11.30;10.10;;;9.10;99.90;;;;;;4996695;28;20190;-80
2023/04/07 02:07:26;;;;;;;11.80;10.60;;;9.20;99.90;;;;;;4947151;28;20193;-79
2023/04/07 02:09:57;;;;;;;10.77;9.60;;;9.20;99.90;;;;;;4963135;28;20465;-79
2023/04/07 02:12:25;;;;;;;12.17;10.50;;;9.30;99.90;;;;;;5001726;28;20470;-79
2023/04/07 02:14:51;;;;;;;11.17;10.07;;;9.30;99.90;;;;;;5012879;28;20491;-80
2023/04/07 02:17:17;;;;;;;12.07;10.87;;;9.10;99.90;;;;;;5011677;28;20442;-80
2023/04/07 02:19:44;;;;;;;12.70;11.23;;;9.20;99.90;;;;;;4993160;28;20437;-80
2023/04/07 02:22:12;;;;;;;12.43;11.13;;;9.20;99.90;;;;;;5011649;28;20536;-79
2023/04/07 02:24:41;;;;;;;12.13;10.33;;;9.20;99.90;;;;;;5023199;28;20828;-80
2023/04/07 02:27:07;;;;;;;11.10;10.03;;;9.10;99.90;;;;;;5014926;28;20424;-80
2023/04/07 02:29:33;;;;;;;12.43;11.13;;;9.10;99.90;;;;;;5016754;28;20515;-79
2023/04/07 02:31:58;;;;;;;12.10;10.80;;;9.10;99.90;;;;;;5020918;28;20650;-80
2023/04/07 02:34:24;;;;;;;11.27;10.10;;;9.10;99.90;;;;;;5017437;28;20178;-80
2023/04/07 02:36:50;;;;;;;13.70;11.70;;;9.10;99.90;;;;;;5012257;28;20185;-80
2023/04/07 02:39:16;;;;;;;14.63;12.17;;;9.20;99.90;;;;;;5017087;28;20712;-79
2023/04/07 02:41:41;;;;;;;12.73;11.30;;;9.20;99.90;;;;;;5016007;28;20433;-79
2023/04/07 02:44:07;;;;;;;14.20;12.20;;;9.20;99.90;;;;;;5033399;28;20220;-77
2023/04/07 02:46:33;;;;;;;13.80;11.70;;;9.20;99.90;;;;;;5047168;28;20246;-76
2023/04/07 02:48:58;;;;;;;14.50;13.00;;;9.20;99.90;;;;;;5034559;28;20211;-78
2023/04/07 02:51:25;;;;;;;13.40;11.80;;;9.20;99.90;;;;;;5023795;28;21077;-79
2023/04/07 02:53:51;;;;;;;14.73;11.57;;;9.20;99.90;;;;;;5014890;28;20185;-78
2023/04/07 02:56:17;;;;;;;13.73;12.23;;;9.20;99.90;;;;;;5009597;28;20445;-78
2023/04/07 02:58:43;;;;;;;15.57;13.03;;;9.20;99.90;;;;;;5020344;28;20224;-80
2023/04/07 03:01:08;;;;;;;13.37;11.77;;;9.20;99.90;;;;;;5015095;28;20193;-79
2023/04/07 03:03:34;;;;;;;15.20;12.80;;;9.20;99.90;;;;;;5021975;28;20434;-80
2023/04/07 03:06:00;;;;;;;15.90;12.93;;;9.30;99.90;;;;;;5027674;28;20217;-77
2023/04/07 03:08:26;;;;;;;16.87;13.50;;;9.20;99.90;;;;;;5001994;28;20190;-79
2023/04/07 03:10:52;;;;;;;14.53;12.67;;;9.30;99.90;;;;;;5002617;28;20744;-78
2023/04/07 03:13:18;;;;;;;16.30;13.37;;;9.20;99.90;;;;;;5005050;28;20437;-79
2023/04/07 03:15:44;;;;;;;15.60;12.80;;;9.20;99.90;;;;;;5014047;28;20241;-79
2023/04/07 03:18:10;;;;;;;17.03;13.63;;;9.30;99.90;;;;;;5012922;28;20461;-78
2023/04/07 03:20:36;;;;;;;15.80;12.87;;;9.40;99.90;;;;;;5023592;28;20861;-79
2023/04/07 03:23:02;;;;;;;17.67;13.50;;;9.30;99.90;;;;;;5012491;28;20421;-79
2023/04/07 03:25:28;;;;;;;17.83;14.10;;;9.30;99.90;;;;;;5010720;28;20516;-78
2023/04/07 03:27:54;;;;;;;17.10;14.20;;;9.30;99.90;;;;;;5014770;28;20493;-80
2023/04/07 03:30:20;;;;;;;17.10;13.23;;;9.30;99.90;;;;;;5014622;28;20290;-80
2023/04/07 03:32:46;;;;;;;14.63;13.03;;;9.30;99.90;;;;;;5010904;28;20699;-79
2023/04/07 03:35:11;;;;;;;18.37;13.67;;;9.30;99.90;;;;;;5032102;28;20452;-80
2023/04/07 03:37:37;;;;;;;16.57;13.30;;;9.30;99.90;;;;;;5015498;28;20701;-78
2023/04/07 03:40:03;;;;;;;16.67;12.60;;;9.40;99.90;;;;;;5008327;28;20832;-78
2023/04/07 03:42:29;;;;;;;16.33;12.90;;;9.30;99.90;;;;;;5004142;28;20817;-80
2023/04/07 03:44:54;;;;;;;17.70;13.47;;;9.30;99.90;;;;;;5016308;28;20516;-80
2023/04/07 03:47:21;;;;;;;15.80;12.30;;;9.30;99.90;;;;;;5011054;28;20195;-80
2023/04/07 03:49:47;;;;;;;21.47;16.07;;;9.40;99.90;;;;;;5012992;28;20215;-80
2023/04/07 03:52:12;;;;;;;18.57;13.93;;;9.40;99.90;;;;;;5000677;28;20515;-80
2023/04/07 03:54:38;;;;;;;18.13;14.53;;;9.40;99.90;;;;;;5011939;28;20194;-79
2023/04/07 03:57:04;;;;;;;20.00;14.00;;;9.30;99.90;;;;;;5013514;28;20194;-79
2023/04/07 03:59:29;;;;;;;20.00;16.13;;;9.50;99.90;;;;;;4998864;28;20743;-78
2023/04/07 04:01:55;;;;;;;20.30;14.27;;;9.40;99.90;;;;;;5009963;28;20193;-80
2023/04/07 04:04:23;;;;;;;20.50;15.47;;;9.30;99.90;;;;;;5018190;28;20191;-78
2023/04/07 04:06:49;;;;;;;22.10;14.87;;;9.40;99.90;;;;;;5011080;28;20907;-81
2023/04/07 04:09:15;;;;;;;22.47;15.60;;;9.50;99.90;;;;;;5022738;28;20450;-78
2023/04/07 04:11:41;;;;;;;22.93;16.43;;;9.40;99.90;;;;;;5010987;28;20513;-80
2023/04/07 04:14:07;;;;;;;20.40;15.93;;;9.40;99.90;;;;;;4998609;28;20792;-79
2023/04/07 04:16:34;;;;;;;18.90;15.13;;;9.50;99.90;;;;;;5007640;28;20278;-81
2023/04/07 04:19:00;;;;;;;22.73;17.07;;;9.50;99.90;;;;;;5019711;28;20297;-81
2023/04/07 04:21:26;;;;;;;24.07;16.20;;;9.50;99.90;;;;;;5011493;28;20470;-80
2023/04/07 04:23:52;;;;;;;23.13;16.30;;;9.50;99.90;;;;;;5000188;28;20453;-80
2023/04/07 04:26:18;;;;;;;22.70;15.30;;;9.40;99.90;;;;;;5009694;28;20201;-79
2023/04/07 04:28:44;;;;;;;21.93;16.40;;;9.50;99.90;;;;;;5018664;28;20418;-80
2023/04/07 04:31:09;;;;;;;24.07;17.00;;;9.50;99.90;;;;;;5009441;28;20211;-80
2023/04/07 04:33:35;;;;;;;21.63;15.37;;;9.40;99.90;;;;;;5016007;28;20509;-78
2023/04/07 04:36:01;;;;;;;20.00;14.97;;;9.50;99.90;;;;;;5007455;28;20187;-77
2023/04/07 04:38:26;;;;;;;22.00;15.47;;;9.50;99.90;;;;;;5013907;28;20283;-80
2023/04/07 04:40:52;;;;;;;21.43;15.73;;;9.50;99.90;;;;;;5007294;28;20202;-80
2023/04/07 04:43:18;;;;;;;20.20;13.80;;;9.50;99.90;;;;;;5009300;28;20190;-80
2023/04/07 04:45:43;;;;;;;21.80;14.50;;;9.50;99.90;;;;;;5014768;28;20187;-79
2023/04/07 04:48:10;;;;;;;19.93;14.07;;;9.50;99.90;;;;;;5008915;28;20261;-79
2023/04/07 04:50:36;;;;;;;22.20;15.07;;;9.50;99.90;;;;;;5011052;28;20210;-77
2023/04/07 04:53:01;;;;;;;22.20;14.33;;;9.50;99.90;;;;;;5016772;28;20834;-79
2023/04/07 04:55:27;;;;;;;21.93;15.30;;;9.40;99.90;;;;;;5011114;28;20187;-78
2023/04/07 04:57:53;;;;;;;20.23;13.23;;;9.40;99.90;;;;;;5009648;28;20452;-78
2023/04/07 05:00:20;;;;;;;20.30;14.00;;;9.50;99.90;;;;;;5019027;28;20997;-80
2023/04/07 05:02:45;;;;;;;21.57;14.67;;;9.40;99.90;;;;;;5027466;28;20224;-79
2023/04/07 05:05:11;;;;;;;20.43;14.27;;;9.40;99.90;;;;;;5008822;28;20951;-79
2023/04/07 05:07:39;;;;;;;16.63;12.10;;;9.40;99.90;;;;;;5017497;28;20246;-79
2023/04/07 05:10:06;;;;;;;16.53;12.27;;;9.40;99.90;;;;;;5019743;28;20456;-80
2023/04/07 05:12:32;;;;;;;17.37;11.97;;;9.30;99.90;;;;;;5019010;28;20475;-80
2023/04/07 05:14:57;;;;;;;19.00;12.90;;;9.50;99.90;;;;;;5014843;28;20436;-80
2023/04/07 05:17:23;;;;;;;17.03;12.27;;;9.40;99.90;;;;;;5008185;28;20517;-80
2023/04/07 05:19:49;;;;;;;17.60;12.23;;;9.40;99.90;;;;;;5010542;28;20199;-79
2023/04/07 05:22:15;;;;;;;16.73;11.80;;;9.30;99.90;;;;;;5013279;28;20187;-78
2023/04/07 05:24:41;;;;;;;16.97;11.50;;;9.50;99.90;;;;;;5009811;28;20218;-78
2023/04/07 05:27:06;;;;;;;17.77;12.30;;;9.50;99.90;;;;;;5000000;28;20958;-80
2023/04/07 05:29:32;;;;;;;17.43;11.77;;;9.40;99.90;;;;;;5011684;28;20218;-76
2023/04/07 05:31:58;;;;;;;16.20;12.00;;;9.40;99.90;;;;;;5017698;28;20249;-80
2023/04/07 05:34:24;;;;;;;18.43;12.13;;;9.40;99.90;;;;;;5023241;28;20326;-80
2023/04/07 05:36:50;;;;;;;16.63;12.30;;;9.40;99.90;;;;;;5011344;28;20194;-77
2023/04/07 05:39:15;;;;;;;17.40;12.43;;;9.20;99.90;;;;;;5017037;28;20457;-78
2023/04/07 05:41:41;;;;;;;17.50;12.30;;;9.30;99.90;;;;;;5017811;28;20318;-77
2023/04/07 05:44:07;;;;;;;14.57;11.80;;;9.40;99.90;;;;;;5012750;28;20301;-80
2023/04/07 05:46:32;;;;;;;17.40;12.50;;;9.30;99.90;;;;;;5007407;28;20197;-80
2023/04/07 05:48:58;;;;;;;17.47;13.60;;;9.50;99.90;;;;;;5012447;28;20194;-80
2023/04/07 05:51:25;;;;;;;16.97;12.50;;;9.50;99.90;;;;;;4990415;28;20674;-79
2023/04/07 05:53:50;;;;;;;15.63;11.67;;;9.30;99.90;;;;;;5005405;28;20179;-79
2023/04/07 05:56:16;;;;;;;16.30;12.80;;;9.30;99.90;;;;;;5007633;28;20434;-80
2023/04/07 05:58:42;;;;;;;15.90;12.20;;;9.40;99.90;;;;;;4992375;28;20187;-77
2023/04/07 06:01:07;;;;;;;18.30;12.37;;;9.40;99.90;;;;;;4993787;28;20250;-80
2023/04/07 06:03:33;;;;;;;15.30;11.20;;;9.50;99.90;;;;;;4993866;28;20250;-79
2023/04/07 06:05:59;;;;;;;16.97;12.87;;;9.50;99.90;;;;;;4992815;28;20180;-80
2023/04/07 06:08:24;;;;;;;16.77;11.23;;;9.40;99.90;;;;;;4993877;28;20187;-80
2023/04/07 06:10:50;;;;;;;15.77;11.70;;;9.40;99.90;;;;;;5006120;28;20207;-77
2023/04/07 06:13:16;;;;;;;16.70;13.23;;;9.50;99.90;;;;;;5013918;28;20175;-80
2023/04/07 06:15:41;;;;;;;18.13;13.60;;;9.40;99.90;;;;;;4998071;28;20187;-80
2023/04/07 06:18:07;;;;;;;20.10;13.57;;;9.40;99.90;;;;;;5003901;28;20179;-80
2023/04/07 06:20:33;;;;;;;18.43;12.63;;;9.40;99.90;;;;;;4993563;28;20222;-79
2023/04/07 06:22:58;;;;;;;15.70;11.60;;;9.50;99.90;;;;;;4992356;28;20183;-79
2023/04/07 06:25:24;;;;;;;15.73;10.93;;;9.50;99.90;;;;;;4994321;28;20175;-80
2023/04/07 06:27:50;;;;;;;17.30;11.10;;;9.40;99.90;;;;;;4993101;28;20189;-80
2023/04/07 06:30:16;;;;;;;14.67;11.10;;;9.50;99.90;;;;;;4992231;28;20200;-80
2023/04/07 06:32:41;;;;;;;16.93;11.07;;;9.40;99.90;;;;;;4976418;28;20463;-77
2023/04/07 06:35:07;;;;;;;15.57;9.93;;;9.30;99.90;;;;;;4975961;28;20176;-78
2023/04/07 06:37:33;;;;;;;17.70;10.97;;;9.50;99.90;;;;;;4993545;28;20226;-80
2023/04/07 06:39:59;;;;;;;14.10;10.23;;;9.40;99.90;;;;;;4993182;28;20450;-78
2023/04/07 06:42:24;;;;;;;13.23;9.73;;;9.40;99.90;;;;;;4993688;28;20180;-80
2023/04/07 06:44:50;;;;;;;13.10;9.47;;;9.60;99.90;;;;;;5004207;28;20186;-80
2023/04/07 06:47:16;;;;;;;12.10;9.30;;;9.60;99.90;;;;;;5011080;28;20179;-79
2023/04/07 06:49:41;;;;;;;12.33;7.80;;;9.60;99.90;;;;;;5012197;28;20560;-80
2023/04/07 06:52:07;;;;;;;11.23;8.30;;;9.70;99.90;;;;;;5011972;28;20211;-80
2023/04/07 06:54:33;;;;;;;12.33;8.80;;;9.50;99.90;;;;;;5008497;28;20172;-80
2023/04/07 06:56:58;;;;;;;11.30;8.33;;;9.50;99.90;;;;;;5012505;28;20271;-80
2023/04/07 06:59:24;;;;;;;11.70;8.70;;;9.60;99.90;;;;;;4995820;28;20200;-78
2023/04/07 07:01:50;;;;;;;10.80;8.60;;;9.60;99.90;;;;;;5008698;28;20191;-78
2023/04/07 07:04:15;;;;;;;11.87;8.47;;;9.50;99.90;;;;;;5020372;28;20737;-78
2023/04/07 07:06:41;;;;;;;10.23;7.73;;;9.50;99.90;;;;;;5022823;28;20428;-78
2023/04/07 07:09:07;;;;;;;11.67;9.07;;;9.60;99.90;;;;;;5019676;28;20199;-76
2023/04/07 07:11:32;;;;;;;12.60;8.80;;;9.50;99.90;;;;;;5016505;28;20210;-78
2023/04/07 07:13:58;;;;;;;16.43;9.03;;;9.70;99.90;;;;;;5010325;28;20180;-78
2023/04/07 07:16:24;;;;;;;11.20;8.60;;;9.60;99.90;;;;;;5021372;28;20246;-78
2023/04/07 07:18:50;;;;;;;11.70;8.03;;;9.60;99.90;;;;;;5021018;28;20285;-78
2023/04/07 07:21:17;;;;;;;12.87;9.50;;;9.60;99.90;;;;;;5022315;28;20423;-78
2023/04/07 07:23:43;;;;;;;10.83;7.83;;;9.50;99.90;;;;;;5021057;28;20812;-78
2023/04/07 07:26:09;;;;;;;9.80;7.40;;;9.60;99.90;;;;;;5021260;28;20432;-78
2023/04/07 07:28:35;;;;;;;11.20;8.17;;;9.60;99.90;;;;;;5020661;28;20951;-78
2023/04/07 07:31:08;;;;;;;10.33;7.80;;;9.70;99.90;;;;;;5019268;28;20278;-78
2023/04/07 07:33:34;;;;;;;10.20;7.63;;;9.80;99.90;;;;;;5020096;28;20174;-78
2023/04/07 07:36:00;;;;;;;8.13;6.77;;;9.70;99.90;;;;;;5018829;28;20418;-78
2023/04/07 07:38:26;;;;;;;11.87;8.30;;;9.60;99.90;;;;;;5022630;28;20237;-78
2023/04/07 07:40:52;;;;;;;10.30;7.57;;;9.50;99.90;;;;;;5023794;28;20219;-77
2023/04/07 07:43:18;;;;;;;9.77;7.40;;;9.60;99.90;;;;;;5023318;28;20739;-78
2023/04/07 07:45:43;;;;;;;12.40;8.30;;;9.50;99.90;;;;;;5011609;28;20458;-78
2023/04/07 07:48:09;;;;;;;12.20;8.10;;;9.60;99.90;;;;;;4995045;28;20188;-78
2023/04/07 07:50:35;;;;;;;13.77;8.00;;;9.70;99.90;;;;;;4993324;28;20206;-78
2023/04/07 07:53:01;;;;;;;10.27;7.57;;;9.60;99.90;;;;;;4995026;28;20216;-78
2023/04/07 07:55:27;;;;;;;11.20;8.27;;;9.60;99.90;;;;;;4995547;28;20786;-78
2023/04/07 07:57:52;;;;;;;13.43;7.87;;;9.80;99.90;;;;;;5013842;28;20492;-79
2023/04/07 08:00:18;;;;;;;11.83;8.33;;;9.70;99.90;;;;;;5014318;28;20199;-78
2023/04/07 08:02:44;;;;;;;10.43;6.43;;;9.70;99.90;;;;;;5013808;28;20267;-78
2023/04/07 08:05:10;;;;;;;11.00;7.00;;;9.60;99.90;;;;;;5012971;28;20210;-78
2023/04/07 08:07:36;;;;;;;9.13;6.50;;;9.60;99.90;;;;;;5014584;28;20198;-78
2023/04/07 08:10:02;;;;;;;8.87;5.80;;;9.60;99.90;;;;;;5013106;28;20290;-78
2023/04/07 08:12:28;;;;;;;6.33;4.87;;;9.70;99.90;;;;;;5008582;28;20533;-76
2023/04/07 08:14:53;;;;;;;8.10;5.67;;;9.70;99.90;;;;;;5007055;28;20417;-78
2023/04/07 08:17:19;;;;;;;7.30;5.17;;;9.70;99.90;;;;;;5011143;28;20552;-77
2023/04/07 08:19:45;;;;;;;7.30;5.23;;;9.70;99.90;;;;;;4996814;28;20199;-77
2023/04/07 08:22:10;;;;;;;8.60;5.67;;;9.80;99.90;;;;;;5012475;28;20191;-78
2023/04/07 08:24:36;;;;;;;7.30;5.63;;;9.70;99.90;;;;;;4998822;28;20229;-79
2023/04/07 08:27:02;;;;;;;7.73;5.60;;;9.70;99.90;;;;;;4995027;28;20191;-79
2023/04/07 08:29:28;;;;;;;8.50;6.07;;;9.80;99.90;;;;;;4996576;28;20213;-78
2023/04/07 08:31:53;;;;;;;7.77;5.30;;;9.80;99.90;;;;;;5014828;28;20241;-78
2023/04/07 08:34:20;;;;;;;8.00;6.60;;;10.00;99.90;;;;;;5015051;28;20270;-78
2023/04/07 08:36:46;;;;;;;8.77;5.77;;;9.90;99.90;;;;;;5013214;28;20183;-79
2023/04/07 08:39:11;;;;;;;7.70;5.30;;;9.80;99.90;;;;;;5013242;28;20500;-79
2023/04/07 08:41:39;;;;;;;7.17;5.27;;;9.90;99.90;;;;;;5012313;28;20422;-79
2023/04/07 08:44:08;;;;;;;6.70;5.10;;;9.90;99.90;;;;;;5023438;28;20217;-77
2023/04/07 08:46:34;;;;;;;7.57;5.20;;;9.90;99.90;;;;;;5013853;28;20437;-79
2023/04/07 08:49:01;;;;;;;8.27;5.57;;;9.90;99.90;;;;;;5009056;28;20410;-75
2023/04/07 08:51:31;;;;;;;7.10;5.07;;;10.00;99.90;;;;;;5000409;28;20579;-76
2023/04/07 08:54:04;;;;;;;8.93;5.87;;;10.10;99.90;;;;;;5014272;28;20478;-79
2023/04/07 08:56:32;;;;;;;8.37;5.70;;;9.90;99.90;;;;;;5007031;28;20443;-78
2023/04/07 08:58:58;;;;;;;8.93;6.03;;;9.90;99.90;;;;;;5012971;28;20457;-78
2023/04/07 09:01:25;;;;;;;10.47;6.33;;;10.00;99.90;;;;;;5015882;28;20434;-77
2023/04/07 09:03:51;;;;;;;7.03;5.60;;;10.00;99.90;;;;;;5017138;28;20480;-78
2023/04/07 09:06:17;;;;;;;8.10;5.60;;;10.10;99.90;;;;;;5015262;28;20442;-78
2023/04/07 09:08:42;;;;;;;7.13;5.53;;;9.90;99.90;;;;;;5015040;28;20481;-77
2023/04/07 09:11:08;;;;;;;8.10;5.90;;;10.00;99.90;;;;;;5016320;28;20214;-78
2023/04/07 09:13:34;;;;;;;9.87;6.60;;;10.00;99.90;;;;;;5026693;28;20215;-78
2023/04/07 09:16:01;;;;;;;9.97;6.20;;;10.10;99.90;;;;;;5019978;28;20245;-78
2023/04/07 09:18:27;;;;;;;10.37;6.90;;;10.00;99.90;;;;;;5027520;28;20213;-77
2023/04/07 09:20:58;;;;;;;9.47;7.10;;;10.10;99.90;;;;;;5034579;28;20743;-76
2023/04/07 09:23:33;;;;;;;8.80;6.47;;;10.00;99.90;;;;;;5022802;28;20520;-78
2023/04/07 09:26:00;;;;;;;9.03;5.70;;;10.10;99.90;;;;;;5023742;28;20540;-78
2023/04/07 09:28:42;;;;;;;9.00;6.70;;;10.10;99.90;;;;;;5021954;28;20448;-77
2023/04/07 09:31:07;;;;;;;7.53;5.73;;;10.10;99.90;;;;;;5026653;28;20518;-77
2023/04/07 09:33:34;;;;;;;10.77;7.17;;;10.10;99.90;;;;;;5020960;28;20747;-77
2023/04/07 09:36:01;;;;;;;11.40;7.23;;;10.10;99.90;;;;;;5013422;28;20203;-78
2023/04/07 09:38:38;;;;;;;10.00;7.10;;;10.10;99.90;;;;;;5013199;28;20484;-77
2023/04/07 09:41:12;;;;;;;9.47;7.30;;;10.10;99.90;;;;;;5015575;28;20433;-77
2023/04/07 09:43:46;;;;;;;9.57;7.57;;;10.20;99.90;;;;;;4996775;28;20457;-79
2023/04/07 09:46:17;;;;;;;9.80;7.03;;;10.20;99.90;;;;;;5016976;28;20790;-76
2023/04/07 09:48:44;;;;;;;10.93;9.07;;;10.20;99.90;;;;;;5013661;28;20865;-78
2023/04/07 09:51:17;;;;;;;11.73;9.30;;;10.20;99.90;;;;;;5026161;28;20453;-78
2023/04/07 09:53:46;;;;;;;17.00;11.93;;;10.20;99.90;;;;;;5013098;28;20504;-78
2023/04/07 09:56:14;;;;;;;13.60;10.90;;;10.20;99.90;;;;;;5014822;28;20835;-77
2023/04/07 09:58:42;;;;;;;12.80;8.93;;;10.20;99.90;;;;;;5013295;28;21024;-78
2023/04/07 10:01:11;;;;;;;10.73;8.73;;;10.20;99.90;;;;;;5013547;28;20974;-78
2023/04/07 10:03:37;;;;;;;12.33;10.27;;;10.20;99.90;;;;;;5013461;28;20541;-78
2023/04/07 10:06:05;;;;;;;10.57;8.83;;;10.20;99.90;;;;;;5013934;28;20446;-78
2023/04/07 10:08:33;;;;;;;10.27;7.50;;;10.20;99.90;;;;;;5014342;28;20771;-77
2023/04/07 10:11:03;;;;;;;9.10;6.60;;;10.20;99.90;;;;;;5017468;28;20437;-78
2023/04/07 10:13:33;;;;;;;10.47;7.77;;;10.20;99.90;;;;;;5019666;28;20462;-77
2023/04/07 10:16:01;;;;;;;9.07;7.17;;;10.20;99.90;;;;;;5007314;28;20481;-77
2023/04/07 10:18:30;;;;;;;7.10;6.23;;;10.20;99.90;;;;;;5015321;28;20456;-78
2023/04/07 10:20:58;;;;;;;7.90;5.93;;;10.20;99.90;;;;;;5019238;28;20437;-77
2023/04/07 10:23:26;;;;;;;9.00;6.37;;;10.20;99.90;;;;;;5018393;28;21054;-77
2023/04/07 10:25:57;;;;;;;10.43;7.87;;;10.30;99.90;;;;;;5014750;28;21126;-77
2023/04/07 10:28:25;;;;;;;10.07;8.77;;;10.20;99.90;;;;;;5019440;28;20449;-78
2023/04/07 10:30:51;;;;;;;10.27;7.83;;;10.30;99.90;;;;;;5012662;28;20993;-77
2023/04/07 10:33:17;;;;;;;11.23;8.90;;;10.30;99.90;;;;;;5021530;28;20555;-77
2023/04/07 10:36:03;;;;;;;9.33;7.50;;;10.30;99.90;;;;;;5012391;28;20457;-77
2023/04/07 10:38:30;;;;;;;9.07;7.70;;;10.20;99.90;;;;;;5023268;28;20489;-78
2023/04/07 10:40:56;;;;;;;12.93;8.37;;;10.20;99.90;;;;;;5015117;28;20549;-76
2023/04/07 10:43:40;;;;;;;10.47;7.77;;;10.40;99.90;;;;;;5015934;28;20537;-77
2023/04/07 10:46:06;;;;;;;9.10;7.60;;;10.30;99.90;;;;;;5007507;28;20204;-77
2023/04/07 10:48:32;;;;;;;8.13;6.20;;;10.40;99.90;;;;;;5006732;28;20521;-77
2023/04/07 10:51:03;;;;;;;8.27;6.43;;;10.20;99.90;;;;;;5011023;28;20449;-77
2023/04/07 10:53:30;;;;;;;8.03;5.30;;;10.20;99.90;;;;;;5007634;28;20466;-77
2023/04/07 10:55:58;;;;;;;6.70;5.07;;;10.20;99.90;;;;;;5006764;28;20946;-77
2023/04/07 10:58:27;;;;;;;5.63;4.60;;;10.30;99.90;;;;;;5007581;28;20545;-77
2023/04/07 11:00:59;;;;;;;5.27;3.93;;;10.20;99.90;;;;;;5009539;28;20481;-77
2023/04/07 11:03:27;;;;;;;4.47;3.60;;;10.20;99.90;;;;;;5014694;28;20462;-77
2023/04/07 11:06:02;;;;;;;5.10;3.30;;;10.20;99.90;;;;;;5006877;28;20925;-76
2023/04/07 11:08:43;;;;;;;4.80;3.40;;;10.20;99.90;;;;;;5002445;28;20450;-76
2023/04/07 11:11:11;;;;;;;3.90;3.10;;;10.20;99.90;;;;;;5003732;28;20442;-77
2023/04/07 11:13:41;;;;;;;5.03;3.40;;;10.30;99.90;;;;;;5002387;28;20938;-76
2023/04/07 11:16:07;;;;;;;3.63;3.20;;;10.30;99.90;;;;;;5005688;28;20855;-76
2023/04/07 11:18:33;;;;;;;4.30;3.30;;;10.40;99.90;;;;;;5007149;28;20497;-77
2023/04/07 11:20:59;;;;;;;3.60;2.60;;;10.40;99.90;;;;;;5005489;28;21152;-77
2023/04/07 11:23:28;;;;;;;4.17;3.77;;;10.40;99.90;;;;;;5005075;28;20861;-76
2023/04/07 11:26:01;;;;;;;4.10;3.13;;;10.10;99.90;;;;;;5008808;28;20669;-78
2023/04/07 11:28:27;;;;;;;3.70;2.90;;;10.40;99.90;;;;;;5018991;28;20462;-77
2023/04/07 11:30:55;;;;;;;4.10;2.97;;;10.40;99.90;;;;;;5006487;28;20448;-77
2023/04/07 11:33:23;;;;;;;7.60;3.77;;;10.40;99.90;;;;;;5006768;28;20469;-78
2023/04/07 11:35:54;;;;;;;4.60;3.80;;;10.40;99.90;;;;;;5007088;28;20469;-77
2023/04/07 11:38:22;;;;;;;3.63;3.13;;;10.50;99.90;;;;;;5020082;28;20550;-78
2023/04/07 11:40:48;;;;;;;5.20;4.70;;;10.40;99.90;;;;;;5007987;28;20495;-77
2023/04/07 11:43:18;;;;;;;5.30;4.80;;;10.40;99.90;;;;;;5003279;28;20524;-77
2023/04/07 11:45:43;;;;;;;6.40;5.77;;;10.40;99.90;;;;;;5009758;28;20947;-77
2023/04/07 11:48:25;;;;;;;7.10;6.40;;;10.40;99.90;;;;;;5009232;28;20465;-77
2023/04/07 11:50:51;;;;;;;7.00;6.40;;;10.30;99.90;;;;;;5009396;28;20457;-77
2023/04/07 11:53:34;;;;;;;8.63;7.60;;;10.30;99.90;;;;;;5012087;28;20494;-78
2023/04/07 11:56:02;;;;;;;8.40;7.47;;;10.30;99.90;;;;;;5007740;28;20206;-78
2023/04/07 11:58:28;;;;;;;7.77;7.10;;;10.30;99.90;;;;;;5015345;28;20523;-78
2023/04/07 12:00:55;;;;;;;8.50;7.70;;;10.30;99.90;;;;;;5008499;28;20454;-78
2023/04/07 12:03:22;;;;;;;8.43;7.50;;;10.30;99.90;;;;;;5008780;28;20227;-77
2023/04/07 12:05:48;;;;;;;7.40;6.70;;;10.30;99.90;;;;;;5010127;28;20453;-77
2023/04/07 12:08:17;;;;;;;7.43;6.70;;;10.30;99.90;;;;;;5016160;28;20453;-77
2023/04/07 12:10:44;;;;;;;7.77;7.07;;;10.30;99.90;;;;;;5014071;28;20218;-78
2023/04/07 12:13:13;;;;;;;7.57;6.80;;;10.30;99.90;;;;;;5010053;28;20501;-78
2023/04/07 12:15:38;;;;;;;7.70;7.00;;;10.20;99.90;;;;;;5014036;28;20500;-78
2023/04/07 12:18:05;;;;;;;7.60;6.90;;;10.30;99.90;;;;;;5008408;28;20486;-78
2023/04/07 12:20:30;;;;;;;7.63;6.93;;;10.30;99.90;;;;;;5005260;28;20203;-77
2023/04/07 12:22:58;;;;;;;7.30;6.60;;;10.40;99.90;;;;;;5008612;28;20465;-78
2023/04/07 12:25:25;;;;;;;7.30;6.60;;;10.30;99.90;;;;;;5021926;28;20507;-79
2023/04/07 12:27:50;;;;;;;7.40;6.70;;;10.40;99.90;;;;;;5003785;28;20450;-77
2023/04/07 12:30:16;;;;;;;7.10;6.47;;;10.30;99.90;;;;;;5005676;28;20492;-79
2023/04/07 12:32:42;;;;;;;6.93;6.33;;;10.30;99.90;;;;;;5007027;28;20222;-77
2023/04/07 12:35:07;;;;;;;7.30;6.60;;;10.30;99.90;;;;;;5009944;28;20680;-77
2023/04/07 12:37:33;;;;;;;7.67;7.00;;;10.30;99.90;;;;;;5020034;28;20277;-77
2023/04/07 12:39:59;;;;;;;7.87;7.07;;;10.40;99.90;;;;;;5008165;28;20223;-78
2023/04/07 12:42:25;;;;;;;7.60;6.80;;;10.30;99.90;;;;;;5014794;28;20211;-77
2023/04/07 12:44:51;;;;;;;7.67;6.97;;;10.30;99.90;;;;;;5002962;28;20223;-77